createdAt,value
2018-05-12T00:00:59.404Z,79.85
2018-05-12T00:01:59.411Z,79.75
2018-05-12T00:02:59.413Z,79.75
2018-05-12T00:03:59.149Z,79.75
2018-05-12T00:04:59.385Z,79.57
2018-05-12T00:05:59.571Z,79.85
2018-05-12T00:06:59.385Z,79.95
2018-05-12T00:07:59.387Z,80.14
2018-05-12T00:08:59.366Z,79.85
2018-05-12T00:09:59.116Z,79.66
2018-05-12T00:10:59.119Z,79.57
2018-05-12T00:11:59.346Z,80.14
2018-05-12T00:12:59.103Z,79.37
2018-05-12T00:13:59.351Z,79.37
2018-05-12T00:14:59.446Z,79.37
2018-05-12T00:15:59.325Z,79.66
2018-05-12T00:16:59.321Z,79.75
2018-05-12T00:17:59.350Z,79.37
2018-05-12T00:18:59.340Z,79.66
2018-05-12T00:19:59.329Z,79.75
2018-05-12T00:20:59.303Z,79.57
2018-05-12T00:21:59.311Z,79.57
2018-05-12T00:22:59.311Z,79.57
2018-05-12T00:23:59.288Z,80.14
2018-05-12T00:24:59.042Z,80.04
2018-05-12T00:25:59.022Z,79.75
2018-05-12T00:26:59.293Z,79.47
2018-05-12T00:27:59.265Z,79.85
2018-05-12T00:28:59.280Z,79.57
2018-05-12T00:29:59.268Z,79.75
2018-05-12T00:30:59.274Z,79.75
2018-05-12T00:31:59.250Z,79.75
2018-05-12T00:32:59.244Z,79.47
2018-05-12T00:33:59.255Z,79.57
2018-05-12T00:34:59.250Z,79.66
2018-05-12T00:35:59.253Z,79.66
2018-05-12T00:36:59.220Z,79.85
2018-05-12T00:37:58.972Z,79.66
2018-05-12T00:38:59.217Z,79.85
2018-05-12T00:39:59.222Z,79.85
2018-05-12T00:40:58.946Z,79.37
2018-05-12T00:41:59.214Z,79.66
2018-05-12T00:42:58.958Z,79.75
2018-05-12T00:43:59.203Z,79.57
2018-05-12T00:44:59.179Z,79.66
2018-05-12T00:45:58.929Z,79.95
2018-05-12T00:46:59.170Z,79.37
2018-05-12T00:47:59.182Z,79.75
2018-05-12T00:48:59.159Z,79.57
2018-05-12T00:49:58.909Z,79.57
2018-05-12T00:50:59.172Z,79.85
2018-05-12T00:51:59.170Z,79.85
2018-05-12T00:52:59.139Z,79.75
2018-05-12T00:53:59.152Z,80.14
2018-05-12T00:54:59.128Z,80.1
2018-05-12T00:55:59.142Z,80.19
2018-05-12T00:56:59.117Z,79.81
2018-05-12T00:57:59.135Z,80.38
2018-05-12T00:58:58.852Z,80.19
2018-05-12T00:59:59.119Z,80.29
2018-05-12T01:00:59.103Z,80.58
2018-05-12T01:01:59.100Z,81.05
2018-05-12T01:02:59.086Z,81.44
2018-05-12T01:03:59.103Z,81.73
2018-05-12T01:04:59.171Z,81.73
2018-05-12T01:05:59.074Z,82.45
2018-05-12T01:06:59.067Z,82.07
2018-05-12T01:07:59.073Z,82.07
2018-05-12T01:08:59.077Z,81.78
2018-05-12T01:09:59.052Z,82.45
2018-05-12T01:10:59.062Z,82.54
2018-05-12T01:11:58.784Z,82.54
2018-05-12T01:12:58.794Z,82.64
2018-05-12T01:13:58.776Z,82.64
2018-05-12T01:14:59.019Z,82.74
2018-05-12T01:15:58.776Z,82.03
2018-05-12T01:16:59.007Z,82.22
2018-05-12T01:17:59.008Z,82.03
2018-05-12T01:18:59.000Z,81.93
2018-05-12T01:19:59.015Z,82.22
2018-05-12T01:20:59.006Z,82.03
2018-05-12T01:21:58.991Z,82.22
2018-05-12T01:22:58.974Z,82.12
2018-05-12T01:23:58.719Z,82.03
2018-05-12T01:24:58.725Z,82.03
2018-05-12T01:25:58.961Z,82.03
2018-05-12T01:26:58.971Z,82.22
2018-05-12T01:27:58.944Z,82.22
2018-05-12T01:28:58.961Z,82.12
2018-05-12T01:29:58.937Z,81.93
2018-05-12T01:30:58.958Z,82.03
2018-05-12T01:31:58.668Z,82.22
2018-05-12T01:32:58.677Z,81.74
2018-05-12T01:33:58.925Z,81.84
2018-05-12T01:34:58.924Z,81.51
2018-05-12T01:35:58.901Z,81.7
2018-05-12T01:36:58.891Z,81.7
2018-05-12T01:37:58.903Z,81.6
2018-05-12T01:38:58.901Z,81.6
2018-05-12T01:39:58.877Z,81.7
2018-05-12T01:40:58.886Z,81.89
2018-05-12T01:41:58.868Z,81.6
2018-05-12T01:42:58.874Z,81.51
2018-05-12T01:43:58.847Z,81.7
2018-05-12T01:44:58.604Z,81.79
2018-05-12T01:45:58.836Z,81.79
2018-05-12T01:46:58.849Z,81.79
2018-05-12T01:47:58.824Z,81.79
2018-05-12T01:48:58.838Z,81.79
2018-05-12T01:49:58.824Z,81.7
2018-05-12T01:50:58.824Z,81.7
2018-05-12T01:51:58.799Z,81.99
2018-05-12T01:52:58.793Z,81.79
2018-05-12T01:53:58.807Z,81.7
2018-05-12T01:54:58.799Z,81.6
2018-05-12T01:55:58.797Z,81.79
2018-05-12T01:56:58.515Z,81.76
2018-05-12T01:57:58.877Z,81.7
2018-05-12T01:58:58.763Z,81.76
2018-05-12T01:59:58.768Z,81.7
2018-05-12T02:00:58.743Z,81.85
2018-05-12T02:01:58.759Z,81.66
2018-05-12T02:02:58.729Z,81.66
2018-05-12T02:03:58.742Z,81.76
2018-05-12T02:04:58.720Z,81.37
2018-05-12T02:05:58.729Z,81.27
2018-05-12T02:06:58.723Z,81.56
2018-05-12T02:07:58.700Z,81.66
2018-05-12T02:08:58.691Z,81.76
2018-05-12T02:09:58.708Z,81.56
2018-05-12T02:10:58.441Z,81.66
2018-05-12T02:11:58.437Z,81.27
2018-05-12T02:12:58.665Z,81.85
2018-05-12T02:13:58.419Z,82.52
2018-05-12T02:14:58.657Z,81.95
2018-05-12T02:15:58.670Z,82.42
2018-05-12T02:16:58.640Z,81.85
2018-05-12T02:17:58.654Z,81.56
2018-05-12T02:18:58.632Z,82.32
2018-05-12T02:19:58.642Z,81.76
2018-05-12T02:20:58.614Z,81.85
2018-05-12T02:21:58.624Z,81.56
2018-05-12T02:22:58.600Z,81.66
2018-05-12T02:23:58.625Z,81.66
2018-05-12T02:24:58.610Z,81.66
2018-05-12T02:25:58.591Z,81.66
2018-05-12T02:26:58.324Z,81.56
2018-05-12T02:27:58.572Z,81.56
2018-05-12T02:28:58.583Z,81.56
2018-05-12T02:29:58.559Z,81.66
2018-05-12T02:30:58.296Z,81.85
2018-05-12T02:31:58.562Z,81.85
2018-05-12T02:32:58.539Z,81.85
2018-05-12T02:33:58.550Z,81.47
2018-05-12T02:34:58.527Z,81.85
2018-05-12T02:35:58.541Z,81.66
2018-05-12T02:36:58.524Z,81.66
2018-05-12T02:37:58.510Z,81.76
2018-05-12T02:38:58.498Z,81.66
2018-05-12T02:39:58.528Z,81.47
2018-05-12T02:40:58.507Z,81.66
2018-05-12T02:41:58.494Z,81.81
2018-05-12T02:42:58.470Z,81.52
2018-05-12T02:43:58.464Z,81.62
2018-05-12T02:44:58.480Z,81.66
2018-05-12T02:45:58.455Z,81.66
2018-05-12T02:46:58.210Z,81.85
2018-05-12T02:47:58.436Z,81.62
2018-05-12T02:48:58.448Z,81.56
2018-05-12T02:49:58.426Z,81.62
2018-05-12T02:50:58.500Z,81.52
2018-05-12T02:51:58.419Z,81.62
2018-05-12T02:52:58.165Z,81.52
2018-05-12T02:53:58.412Z,81.47
2018-05-12T02:54:58.411Z,81.47
2018-05-12T02:55:58.391Z,81.24
2018-05-12T02:56:58.415Z,81.47
2018-05-12T02:57:58.378Z,81.18
2018-05-12T02:58:58.364Z,81.62
2018-05-12T02:59:58.106Z,81.76
2018-05-12T03:00:58.379Z,81.66
2018-05-12T03:01:58.355Z,81.27
2018-05-12T03:02:58.360Z,81.47
2018-05-12T03:03:58.332Z,81.47
2018-05-12T03:04:58.088Z,81.27
2018-05-12T03:05:58.323Z,81.56
2018-05-12T03:06:58.333Z,81.27
2018-05-12T03:07:58.308Z,82.32
2018-05-12T03:08:58.321Z,82.52
2018-05-12T03:09:58.307Z,82.14
2018-05-12T03:10:58.305Z,82.14
2018-05-12T03:11:58.278Z,82.14
2018-05-12T03:12:58.272Z,82.52
2018-05-12T03:13:58.279Z,82.14
2018-05-12T03:14:58.283Z,82.14
2018-05-12T03:15:58.272Z,82.14
2018-05-12T03:16:58.250Z,81.56
2018-05-12T03:17:58.255Z,81.85
2018-05-12T03:18:58.241Z,81.85
2018-05-12T03:19:58.250Z,81.47
2018-05-12T03:20:57.966Z,81.32
2018-05-12T03:21:58.227Z,81.6
2018-05-12T03:22:58.226Z,81.79
2018-05-12T03:23:58.202Z,81.47
2018-05-12T03:24:58.213Z,81.6
2018-05-12T03:25:58.201Z,81.6
2018-05-12T03:26:58.200Z,81.6
2018-05-12T03:27:58.177Z,81.79
2018-05-12T03:28:58.167Z,81.7
2018-05-12T03:29:58.175Z,81.89
2018-05-12T03:30:58.175Z,81.7
2018-05-12T03:31:58.176Z,81.99
2018-05-12T03:32:58.228Z,81.7
2018-05-12T03:33:58.151Z,81.89
2018-05-12T03:34:57.891Z,81.89
2018-05-12T03:35:58.124Z,81.7
2018-05-12T03:36:58.137Z,81.89
2018-05-12T03:37:58.117Z,81.79
2018-05-12T03:38:58.127Z,81.89
2018-05-12T03:39:58.098Z,81.41
2018-05-12T03:40:57.854Z,81.51
2018-05-12T03:41:58.101Z,81.41
2018-05-12T03:42:58.100Z,81.7
2018-05-12T03:43:58.085Z,81.13
2018-05-12T03:44:58.078Z,80.93
2018-05-12T03:45:58.081Z,81.03
2018-05-12T03:46:58.080Z,81.32
2018-05-12T03:47:58.049Z,81.03
2018-05-12T03:48:58.068Z,81.51
2018-05-12T03:49:58.043Z,81.32
2018-05-12T03:50:58.057Z,81.79
2018-05-12T03:51:58.028Z,81.45
2018-05-12T03:52:58.038Z,81.45
2018-05-12T03:53:58.017Z,81.55
2018-05-12T03:54:58.028Z,81.65
2018-05-12T03:55:58.007Z,81.26
2018-05-12T03:56:58.023Z,81.26
2018-05-12T03:57:58.003Z,81.93
2018-05-12T03:58:58.005Z,81.65
2018-05-12T03:59:58.166Z,81.74
2018-05-12T04:00:57.717Z,81.36
2018-05-12T04:01:57.985Z,81.55
2018-05-12T04:02:57.721Z,81.45
2018-05-12T04:03:57.714Z,81.65
2018-05-12T04:04:57.950Z,81.84
2018-05-12T04:05:57.960Z,81.65
2018-05-12T04:06:57.934Z,81.26
2018-05-12T04:07:57.691Z,81.84
2018-05-12T04:08:57.921Z,81.93
2018-05-12T04:09:57.945Z,81.65
2018-05-12T04:10:57.658Z,81.84
2018-05-12T04:11:57.670Z,81.84
2018-05-12T04:12:57.898Z,81.74
2018-05-12T04:13:57.909Z,81.65
2018-05-12T04:14:57.913Z,81.74
2018-05-12T04:15:57.880Z,81.45
2018-05-12T04:16:57.881Z,81.65
2018-05-12T04:17:57.884Z,81.88
2018-05-12T04:18:57.886Z,81.49
2018-05-12T04:19:57.881Z,81.4
2018-05-12T04:20:57.946Z,81.59
2018-05-12T04:21:57.861Z,81.88
2018-05-12T04:22:57.841Z,81.88
2018-05-12T04:23:57.855Z,81.49
2018-05-12T04:24:57.829Z,81.21
2018-05-12T04:25:57.843Z,81.21
2018-05-12T04:26:57.817Z,81.21
2018-05-12T04:27:57.831Z,81.11
2018-05-12T04:28:57.810Z,81.02
2018-05-12T04:29:57.806Z,81.02
2018-05-12T04:30:57.795Z,81.02
2018-05-12T04:31:57.814Z,81.02
2018-05-12T04:32:57.804Z,81.25
2018-05-12T04:33:57.786Z,80.82
2018-05-12T04:34:57.781Z,81.21
2018-05-12T04:35:57.768Z,80.82
2018-05-12T04:36:57.782Z,81.05
2018-05-12T04:37:57.764Z,81.34
2018-05-12T04:38:57.749Z,81.15
2018-05-12T04:39:57.763Z,81.54
2018-05-12T04:40:57.740Z,80.96
2018-05-12T04:41:57.758Z,81.05
2018-05-12T04:42:57.730Z,81.25
2018-05-12T04:43:57.749Z,81.25
2018-05-12T04:44:57.470Z,81.25
2018-05-12T04:45:57.718Z,80.87
2018-05-12T04:46:57.709Z,80.77
2018-05-12T04:47:57.723Z,80.38
2018-05-12T04:48:57.718Z,80.19
2018-05-12T04:49:57.701Z,81.05
2018-05-12T04:50:57.446Z,80.58
2018-05-12T04:51:57.687Z,81.15
2018-05-12T04:52:57.699Z,80.87
2018-05-12T04:53:57.677Z,80.71
2018-05-12T04:54:57.687Z,80.62
2018-05-12T04:55:57.665Z,80.62
2018-05-12T04:56:57.690Z,80.33
2018-05-12T04:57:57.650Z,80.43
2018-05-12T04:58:57.666Z,81
2018-05-12T04:59:57.649Z,80.62
2018-05-12T05:00:57.401Z,80.9
2018-05-12T05:01:57.660Z,80.14
2018-05-12T05:02:57.648Z,80.52
2018-05-12T05:03:57.633Z,80.52
2018-05-12T05:04:57.642Z,80.24
2018-05-12T05:05:57.618Z,80.62
2018-05-12T05:06:57.607Z,80.24
2018-05-12T05:07:57.609Z,80.37
2018-05-12T05:08:57.623Z,79.99
2018-05-12T05:09:57.602Z,79.89
2018-05-12T05:10:57.641Z,80.27
2018-05-12T05:11:57.583Z,80.27
2018-05-12T05:12:57.599Z,79.99
2018-05-12T05:13:57.575Z,80.08
2018-05-12T05:14:57.589Z,79.51
2018-05-12T05:15:57.578Z,79.51
2018-05-12T05:16:57.578Z,79.8
2018-05-12T05:17:57.570Z,79.8
2018-05-12T05:18:57.556Z,79.6
2018-05-12T05:19:57.569Z,79.83
2018-05-12T05:20:57.565Z,79.45
2018-05-12T05:21:57.545Z,79.93
2018-05-12T05:22:57.538Z,79.83
2018-05-12T05:23:57.531Z,80.12
2018-05-12T05:24:57.548Z,80.45
2018-05-12T05:25:57.528Z,80.74
2018-05-12T05:26:57.539Z,80.26
2018-05-12T05:27:57.518Z,80.49
2018-05-12T05:28:57.534Z,80.2
2018-05-12T05:29:57.513Z,79.82
2018-05-12T05:30:57.506Z,80.11
2018-05-12T05:31:57.529Z,81.3
2018-05-12T05:32:57.508Z,82.07
2018-05-12T05:33:57.506Z,82.1
2018-05-12T05:34:57.493Z,81.96
2018-05-12T05:35:57.515Z,81.48
2018-05-12T05:36:57.510Z,80.17
2018-05-12T05:37:57.494Z,80.55
2018-05-12T05:38:57.484Z,79.63
2018-05-12T05:39:57.483Z,79.53
2018-05-12T05:40:57.512Z,78.33
2018-05-12T05:41:57.234Z,77.26
2018-05-12T05:42:57.504Z,77.01
2018-05-12T05:43:57.481Z,77.01
2018-05-12T05:44:57.499Z,77.06
2018-05-12T05:45:57.484Z,76.42
2018-05-12T05:46:57.500Z,76.42
2018-05-12T05:47:57.482Z,75.97
2018-05-12T05:48:57.503Z,76.07
2018-05-12T05:49:57.499Z,77.65
2018-05-12T05:50:57.510Z,80.1
2018-05-12T05:51:57.492Z,79.81
2018-05-12T05:52:57.490Z,79.33
2018-05-12T05:53:57.250Z,81.65
2018-05-12T05:54:57.256Z,81.3
2018-05-12T05:55:57.497Z,78.11
2018-05-12T05:56:57.520Z,75.06
2018-05-12T05:57:57.509Z,74.32
2018-05-12T05:58:57.524Z,76.1
2018-05-12T05:59:57.521Z,75.17
2018-05-12T06:00:57.537Z,74.4
2018-05-12T06:01:57.526Z,76.08
2018-05-12T06:02:57.550Z,78.83
2018-05-12T06:03:57.538Z,79.02
2018-05-12T06:04:57.296Z,79.93
2018-05-12T06:05:57.553Z,79.25
2018-05-12T06:06:57.667Z,78.71
2018-05-12T06:07:57.551Z,79.3
2018-05-12T06:08:57.558Z,78.17
2018-05-12T06:09:57.577Z,80.63
2018-05-12T06:10:57.587Z,81.51
2018-05-12T06:11:57.337Z,83.1
2018-05-12T06:12:57.329Z,83.88
2018-05-12T06:13:57.345Z,84.75
2018-05-12T06:14:57.599Z,87.81
2018-05-12T06:15:57.620Z,88.58
2018-05-12T06:16:57.606Z,89.55
2018-05-12T06:17:57.732Z,89.75
2018-05-12T06:18:57.621Z,89.61
2018-05-12T06:19:57.730Z,90.67
2018-05-12T06:20:57.382Z,90.77
2018-05-12T06:21:57.658Z,90.48
2018-05-12T06:22:57.685Z,90.91
2018-05-12T06:23:57.656Z,90.42
2018-05-12T06:24:57.666Z,90.62
2018-05-12T06:25:57.684Z,90.72
2018-05-12T06:26:57.439Z,91.3
2018-05-12T06:27:57.809Z,90.91
2018-05-12T06:28:57.692Z,91.2
2018-05-12T06:29:57.712Z,90.33
2018-05-12T06:30:57.452Z,90.14
2018-05-12T06:31:57.735Z,89.79
2018-05-12T06:32:57.719Z,91.05
2018-05-12T06:33:57.748Z,90.86
2018-05-12T06:34:57.734Z,90.86
2018-05-12T06:35:57.768Z,90.42
2018-05-12T06:36:57.772Z,90.81
2018-05-12T06:37:57.766Z,89.98
2018-05-12T06:38:57.763Z,90.99
2018-05-12T06:39:57.794Z,91.38
2018-05-12T06:40:57.800Z,91.09
2018-05-12T06:41:57.799Z,91.09
2018-05-12T06:42:57.801Z,90.8
2018-05-12T06:43:57.805Z,90.41
2018-05-12T06:44:57.845Z,90.8
2018-05-12T06:45:57.578Z,90.7
2018-05-12T06:46:57.830Z,90.84
2018-05-12T06:47:57.862Z,90.75
2018-05-12T06:48:57.847Z,90.65
2018-05-12T06:49:57.617Z,90.41
2018-05-12T06:50:57.863Z,90.45
2018-05-12T06:51:57.892Z,90.89
2018-05-12T06:52:58.038Z,91.09
2018-05-12T06:53:57.891Z,91.09
2018-05-12T06:54:57.896Z,90.8
2018-05-12T06:55:57.930Z,90.41
2018-05-12T06:56:57.938Z,90.61
2018-05-12T06:57:57.926Z,90.26
2018-05-12T06:58:57.926Z,89.67
2018-05-12T06:59:57.958Z,89.43
2018-05-12T07:00:57.940Z,90.99
2018-05-12T07:01:57.966Z,91.32
2018-05-12T07:02:57.964Z,91.81
2018-05-12T07:03:57.984Z,93.95
2018-05-12T07:04:57.974Z,92.79
2018-05-12T07:05:58.008Z,93.85
2018-05-12T07:06:57.992Z,92.74
2018-05-12T07:07:58.025Z,91.38
2018-05-12T07:08:58.016Z,91.28
2018-05-12T07:09:58.023Z,88.7
2018-05-12T07:10:58.035Z,93.13
2018-05-12T07:11:58.061Z,93.09
2018-05-12T07:12:58.045Z,94.02
2018-05-12T07:13:57.813Z,93.14
2018-05-12T07:14:58.080Z,93.68
2018-05-12T07:15:58.086Z,94.12
2018-05-12T07:16:58.077Z,94.31
2018-05-12T07:17:57.838Z,94.7
2018-05-12T07:18:58.088Z,94.46
2018-05-12T07:19:58.115Z,94.36
2018-05-12T07:20:58.105Z,94.07
2018-05-12T07:21:58.128Z,94.26
2018-05-12T07:22:57.863Z,93.88
2018-05-12T07:23:58.138Z,93.93
2018-05-12T07:24:58.128Z,94.32
2018-05-12T07:25:58.138Z,94.02
2018-05-12T07:26:57.890Z,93.25
2018-05-12T07:27:58.163Z,92.86
2018-05-12T07:28:58.168Z,93.15
2018-05-12T07:29:58.159Z,92.47
2018-05-12T07:30:57.906Z,93.25
2018-05-12T07:31:58.164Z,92.86
2018-05-12T07:32:57.941Z,94.02
2018-05-12T07:33:58.179Z,93.25
2018-05-12T07:34:58.198Z,92.86
2018-05-12T07:35:58.181Z,93.15
2018-05-12T07:36:58.206Z,92.86
2018-05-12T07:37:58.195Z,93.05
2018-05-12T07:38:58.258Z,92.91
2018-05-12T07:39:58.228Z,93.59
2018-05-12T07:40:58.201Z,92.67
2018-05-12T07:41:58.215Z,92.96
2018-05-12T07:42:58.210Z,93.64
2018-05-12T07:43:58.237Z,92.43
2018-05-12T07:44:58.248Z,93.3
2018-05-12T07:45:58.229Z,93.98
2018-05-12T07:46:58.228Z,93.84
2018-05-12T07:47:58.227Z,94.23
2018-05-12T07:48:57.992Z,93.84
2018-05-12T07:49:58.324Z,94.37
2018-05-12T07:50:58.260Z,94.09
2018-05-12T07:51:58.244Z,94.67
2018-05-12T07:52:58.262Z,94.37
2018-05-12T07:53:58.266Z,93.99
2018-05-12T07:54:58.282Z,94.09
2018-05-12T07:55:58.259Z,94.33
2018-05-12T07:56:58.401Z,96.55
2018-05-12T07:57:58.272Z,91.91
2018-05-12T07:58:58.281Z,94.04
2018-05-12T07:59:58.260Z,94.76
2018-05-12T08:00:58.267Z,94.48
2018-05-12T08:01:58.286Z,97.28
2018-05-12T08:02:58.305Z,94.67
2018-05-12T08:03:58.268Z,94.96
2018-05-12T08:04:58.292Z,94.24
2018-05-12T08:05:58.280Z,95.01
2018-05-12T08:06:58.296Z,94.62
2018-05-12T08:07:58.283Z,93.6
2018-05-12T08:08:58.303Z,93.9
2018-05-12T08:09:58.281Z,93.8
2018-05-12T08:10:58.305Z,95.83
2018-05-12T08:11:58.285Z,94.09
2018-05-12T08:12:58.496Z,93.51
2018-05-12T08:13:58.302Z,92.97
2018-05-12T08:14:58.309Z,93.65
2018-05-12T08:15:58.294Z,92.97
2018-05-12T08:16:58.299Z,93.26
2018-05-12T08:17:58.312Z,95.15
2018-05-12T08:18:58.320Z,93.7
2018-05-12T08:19:58.320Z,94.18
2018-05-12T08:20:58.303Z,93.99
2018-05-12T08:21:58.321Z,94.47
2018-05-12T08:22:58.310Z,93.21
2018-05-12T08:23:58.334Z,94.09
2018-05-12T08:24:58.317Z,94.62
2018-05-12T08:25:58.337Z,94.33
2018-05-12T08:26:58.534Z,93.46
2018-05-12T08:27:58.342Z,94.23
2018-05-12T08:28:58.326Z,89.39
2018-05-12T08:29:58.345Z,93.94
2018-05-12T08:30:58.366Z,92.93
2018-05-12T08:31:58.336Z,94.86
2018-05-12T08:32:58.343Z,94.38
2018-05-12T08:33:58.354Z,94.67
2018-05-12T08:34:58.363Z,90.9
2018-05-12T08:35:58.365Z,94.67
2018-05-12T08:36:58.348Z,94.86
2018-05-12T08:37:58.112Z,95.54
2018-05-12T08:38:58.356Z,93.99
2018-05-12T08:39:58.375Z,93.17
2018-05-12T08:40:58.372Z,94.71
2018-05-12T08:41:58.383Z,95.39
2018-05-12T08:42:58.363Z,94.04
2018-05-12T08:43:58.128Z,94.09
2018-05-12T08:44:58.369Z,97.18
2018-05-12T08:45:58.129Z,92.54
2018-05-12T08:46:58.126Z,94.62
2018-05-12T08:47:58.401Z,94.42
2018-05-12T08:48:58.399Z,94.9
2018-05-12T08:49:58.388Z,94.62
2018-05-12T08:50:58.390Z,94.42
2018-05-12T08:51:58.392Z,93.7
2018-05-12T08:52:58.423Z,94.27
2018-05-12T08:53:58.411Z,93.88
2018-05-12T08:54:58.402Z,92.43
2018-05-12T08:55:58.428Z,93.6
2018-05-12T08:56:58.410Z,96.21
2018-05-12T08:57:58.431Z,90.69
2018-05-12T08:58:58.416Z,92.33
2018-05-12T08:59:58.176Z,95
2018-05-12T09:00:58.425Z,95.29
2018-05-12T09:01:58.430Z,94.9
2018-05-12T09:02:58.439Z,94.62
2018-05-12T09:03:58.453Z,94.71
2018-05-12T09:04:58.449Z,94.23
2018-05-12T09:05:58.444Z,94.76
2018-05-12T09:06:58.436Z,95.05
2018-05-12T09:07:58.438Z,93.88
2018-05-12T09:08:58.473Z,94.47
2018-05-12T09:09:58.451Z,94.76
2018-05-12T09:10:58.472Z,95.05
2018-05-12T09:11:58.455Z,94.47
2018-05-12T09:12:58.474Z,94.27
2018-05-12T09:13:58.459Z,93.7
2018-05-12T09:14:58.484Z,94.37
2018-05-12T09:15:58.213Z,95.25
2018-05-12T09:16:58.497Z,94.51
2018-05-12T09:17:58.231Z,94.51
2018-05-12T09:18:58.496Z,94.81
2018-05-12T09:19:58.490Z,92.29
2018-05-12T09:20:58.507Z,94.71
2018-05-12T09:21:58.496Z,91.89
2018-05-12T09:22:58.493Z,92.43
2018-05-12T09:23:58.508Z,94.23
2018-05-12T09:24:58.522Z,95.68
2018-05-12T09:25:58.259Z,93.35
2018-05-12T09:26:58.531Z,95.58
2018-05-12T09:27:58.516Z,93.93
2018-05-12T09:28:58.537Z,93.84
2018-05-12T09:29:58.531Z,95.19
2018-05-12T09:30:58.547Z,94.9
2018-05-12T09:31:58.537Z,90.73
2018-05-12T09:32:58.558Z,93.98
2018-05-12T09:33:58.296Z,93.88
2018-05-12T09:34:58.562Z,95.05
2018-05-12T09:35:58.550Z,95.43
2018-05-12T09:36:58.298Z,95.29
2018-05-12T09:37:58.336Z,94.9
2018-05-12T09:38:58.583Z,95.48
2018-05-12T09:39:58.590Z,95.39
2018-05-12T09:40:58.313Z,94.51
2018-05-12T09:41:58.329Z,95.29
2018-05-12T09:42:58.575Z,94.51
2018-05-12T09:43:58.607Z,94.37
2018-05-12T09:44:58.327Z,93.3
2018-05-12T09:45:58.356Z,92.91
2018-05-12T09:46:58.608Z,94.27
2018-05-12T09:47:58.592Z,94.42
2018-05-12T09:48:58.610Z,94.76
2018-05-12T09:49:58.614Z,94.07
2018-05-12T09:50:58.619Z,94.85
2018-05-12T09:51:58.352Z,90.68
2018-05-12T09:52:58.620Z,93.16
2018-05-12T09:53:58.624Z,94.51
2018-05-12T09:54:58.644Z,92.33
2018-05-12T09:55:58.639Z,93.02
2018-05-12T09:56:58.368Z,88.27
2018-05-12T09:57:58.385Z,89.92
2018-05-12T09:58:58.627Z,91.47
2018-05-12T09:59:58.664Z,91.08
2018-05-12T10:00:58.644Z,87.45
2018-05-12T10:01:58.400Z,86.24
2018-05-12T10:02:58.641Z,84.31
2018-05-12T10:03:58.409Z,90.56
2018-05-12T10:04:58.648Z,95.01
2018-05-12T10:05:58.658Z,95.54
2018-05-12T10:06:58.653Z,95.68
2018-05-12T10:07:58.678Z,95.59
2018-05-12T10:08:58.680Z,95.34
2018-05-12T10:09:58.669Z,94.18
2018-05-12T10:10:58.670Z,95.2
2018-05-12T10:11:58.695Z,95.29
2018-05-12T10:12:58.823Z,93.88
2018-05-12T10:13:58.694Z,90.11
2018-05-12T10:14:58.679Z,95.78
2018-05-12T10:15:58.702Z,94.13
2018-05-12T10:16:58.724Z,90.74
2018-05-12T10:17:58.708Z,94.18
2018-05-12T10:18:58.708Z,89.44
2018-05-12T10:19:58.746Z,94.04
2018-05-12T10:20:58.698Z,94.62
2018-05-12T10:21:58.732Z,96.46
2018-05-12T10:22:58.451Z,95.54
2018-05-12T10:23:58.728Z,95.73
2018-05-12T10:24:58.711Z,95.15
2018-05-12T10:25:58.725Z,94.52
2018-05-12T10:26:58.734Z,95.39
2018-05-12T10:27:58.741Z,93.84
2018-05-12T10:28:58.724Z,94.71
2018-05-12T10:29:58.735Z,94.81
2018-05-12T10:30:58.725Z,95
2018-05-12T10:31:58.753Z,95.39
2018-05-12T10:32:58.730Z,95.73
2018-05-12T10:33:58.757Z,94.81
2018-05-12T10:34:58.736Z,95.73
2018-05-12T10:35:58.785Z,95.63
2018-05-12T10:36:58.748Z,95.83
2018-05-12T10:37:58.764Z,95.63
2018-05-12T10:38:58.893Z,98.39
2018-05-12T10:39:58.751Z,94.51
2018-05-12T10:40:58.510Z,95.19
2018-05-12T10:41:58.770Z,94.9
2018-05-12T10:42:58.521Z,95.68
2018-05-12T10:43:58.524Z,94.42
2018-05-12T10:44:58.765Z,94.76
2018-05-12T10:45:58.783Z,94.85
2018-05-12T10:46:58.776Z,94.66
2018-05-12T10:47:58.812Z,94.85
2018-05-12T10:48:58.786Z,95.14
2018-05-12T10:49:58.802Z,94.95
2018-05-12T10:50:58.784Z,95.39
2018-05-12T10:51:58.812Z,94.6
2018-05-12T10:52:58.792Z,95.29
2018-05-12T10:53:58.805Z,95
2018-05-12T10:54:58.861Z,95.92
2018-05-12T10:55:58.824Z,90
2018-05-12T10:56:58.827Z,89.95
2018-05-12T10:57:58.561Z,90.58
2018-05-12T10:58:58.923Z,92.67
2018-05-12T10:59:58.567Z,85.5
2018-05-12T11:00:58.842Z,89.37
2018-05-12T11:01:59.006Z,85.94
2018-05-12T11:02:58.837Z,92.53
2018-05-12T11:03:58.852Z,84.88
2018-05-12T11:04:58.835Z,93.94
2018-05-12T11:05:58.860Z,94.9
2018-05-12T11:06:58.848Z,95.78
2018-05-12T11:07:58.607Z,96.17
2018-05-12T11:08:58.595Z,94.32
2018-05-12T11:09:58.862Z,93.35
2018-05-12T11:10:58.853Z,90.78
2018-05-12T11:11:58.878Z,95.34
2018-05-12T11:12:58.899Z,95.43
2018-05-12T11:13:58.616Z,95.58
2018-05-12T11:14:58.869Z,95.68
2018-05-12T11:15:59.038Z,95.39
2018-05-12T11:16:58.896Z,95.82
2018-05-12T11:17:58.890Z,94.95
2018-05-12T11:18:58.642Z,91.6
2018-05-12T11:19:58.885Z,94.42
2018-05-12T11:20:58.907Z,95.29
2018-05-12T11:21:59.177Z,95.19
2018-05-12T11:22:58.656Z,95.24
2018-05-12T11:23:58.904Z,92.03
2018-05-12T11:24:58.923Z,91.74
2018-05-12T11:25:58.923Z,94.65
2018-05-12T11:26:58.929Z,95.53
2018-05-12T11:27:58.919Z,94.95
2018-05-12T11:28:58.938Z,93.2
2018-05-12T11:29:58.926Z,92.22
2018-05-12T11:30:58.673Z,90.92
2018-05-12T11:31:58.684Z,95.19
2018-05-12T11:32:58.953Z,92.67
2018-05-12T11:33:58.941Z,93.54
2018-05-12T11:34:58.958Z,92.86
2018-05-12T11:35:58.950Z,94.56
2018-05-12T11:36:58.968Z,89.71
2018-05-12T11:37:58.954Z,92.77
2018-05-12T11:38:58.974Z,95.19
2018-05-12T11:39:58.960Z,91.02
2018-05-12T11:40:58.990Z,87.15
2018-05-12T11:41:58.981Z,90.06
2018-05-12T11:42:58.990Z,93.98
2018-05-12T11:43:58.974Z,90.59
2018-05-12T11:44:58.725Z,93.74
2018-05-12T11:45:58.995Z,91.42
2018-05-12T11:46:59.003Z,90.64
2018-05-12T11:47:58.751Z,89.53
2018-05-12T11:48:58.989Z,95.54
2018-05-12T11:49:59.006Z,96.22
2018-05-12T11:50:58.996Z,96.02
2018-05-12T11:51:59.020Z,95.68
2018-05-12T11:52:58.747Z,95.1
2018-05-12T11:53:59.098Z,95.43
2018-05-12T11:54:59.034Z,94.81
2018-05-12T11:55:59.013Z,94.32
2018-05-12T11:56:59.030Z,93.4
2018-05-12T11:57:59.027Z,94.07
2018-05-12T11:58:59.036Z,94.56
2018-05-12T11:59:59.020Z,94.7
2018-05-12T12:00:59.022Z,95.97
2018-05-12T12:01:59.041Z,91.6
2018-05-12T12:02:59.053Z,92.67
2018-05-12T12:03:59.053Z,88.45
2018-05-12T12:04:58.787Z,84.38
2018-05-12T12:05:59.069Z,92.86
2018-05-12T12:06:59.065Z,88.41
2018-05-12T12:07:58.794Z,92.82
2018-05-12T12:08:58.812Z,95.05
2018-05-12T12:09:59.059Z,95.73
2018-05-12T12:10:59.092Z,89.62
2018-05-12T12:11:58.804Z,89.72
2018-05-12T12:12:59.085Z,95
2018-05-12T12:13:58.850Z,95.68
2018-05-12T12:14:58.833Z,95.78
2018-05-12T12:15:59.070Z,97.57
2018-05-12T12:16:59.114Z,90.11
2018-05-12T12:17:59.095Z,86.52
2018-05-12T12:18:59.193Z,87.45
2018-05-12T12:19:59.096Z,89.58
2018-05-12T12:20:59.103Z,90.64
2018-05-12T12:21:59.101Z,89.19
2018-05-12T12:22:59.114Z,93.31
2018-05-12T12:23:59.096Z,88.37
2018-05-12T12:24:59.114Z,89.25
2018-05-12T12:25:59.100Z,86.82
2018-05-12T12:26:59.118Z,83.28
2018-05-12T12:27:59.109Z,91.66
2018-05-12T12:28:59.125Z,84.11
2018-05-12T12:29:59.120Z,88.09
2018-05-12T12:30:59.130Z,93.6
2018-05-12T12:31:59.118Z,86.05
2018-05-12T12:32:59.130Z,82.08
2018-05-12T12:33:59.130Z,84.75
2018-05-12T12:34:59.154Z,83.49
2018-05-12T12:35:59.141Z,88.62
2018-05-12T12:36:59.136Z,91.33
2018-05-12T12:37:59.161Z,86.49
2018-05-12T12:38:58.876Z,86.49
2018-05-12T12:39:59.152Z,91.04
2018-05-12T12:40:59.130Z,84.46
2018-05-12T12:41:58.902Z,90.36
2018-05-12T12:42:59.136Z,90.12
2018-05-12T12:43:59.156Z,85.66
2018-05-12T12:44:59.269Z,79.76
2018-05-12T12:45:59.160Z,81.3
2018-05-12T12:46:59.162Z,86.44
2018-05-12T12:47:59.162Z,91.66
2018-05-12T12:48:59.154Z,92.39
2018-05-12T12:49:59.167Z,91.32
2018-05-12T12:50:59.171Z,88.46
2018-05-12T12:51:58.922Z,86.52
2018-05-12T12:52:59.166Z,90.2
2018-05-12T12:53:59.174Z,83.33
2018-05-12T12:54:59.160Z,86.13
2018-05-12T12:55:59.187Z,78.19